createdAt,value
2023-02-13T00:00:54.144Z,23.83
2023-02-13T00:03:24.511Z,22.77
2023-02-13T00:05:56.882Z,21.05
2023-02-13T00:08:26.693Z,22.05
2023-02-13T00:10:56.811Z,22.02
2023-02-13T00:13:26.782Z,22.15
2023-02-13T00:16:00.653Z,22.25
2023-02-13T00:18:31.955Z,24.42
2023-02-13T00:21:07.362Z,23.15
2023-02-13T00:23:38.513Z,23.58
2023-02-13T00:26:10.203Z,22.13
2023-02-13T00:28:40.672Z,23.60
2023-02-13T00:31:13.248Z,22.67
2023-02-13T00:33:43.296Z,22.17
2023-02-13T00:36:17.848Z,22.90
2023-02-13T00:41:18.927Z,26.98
2023-02-13T00:43:50.034Z,27.25
2023-02-13T00:46:20.895Z,25.58
2023-02-13T00:48:50.862Z,24.35
2023-02-13T00:51:23.218Z,24.30
2023-02-13T00:53:52.983Z,24.13
2023-02-13T00:56:22.939Z,22.52
2023-02-13T00:58:52.690Z,22.85
2023-02-13T01:01:22.572Z,22.75
2023-02-13T01:03:52.384Z,23.05
2023-02-13T01:06:24.886Z,24.80
2023-02-13T01:08:54.653Z,24.15
2023-02-13T01:11:24.406Z,22.33
2023-02-13T01:13:54.122Z,23.67
2023-02-13T01:16:24.044Z,23.67
2023-02-13T01:18:53.891Z,23.33
2023-02-13T01:21:26.458Z,22.35
2023-02-13T01:23:56.406Z,23.65
2023-02-13T01:26:28.626Z,23.65
2023-02-13T01:28:58.417Z,23.02
2023-02-13T01:31:28.637Z,23.85
2023-02-13T01:33:59.988Z,21.83
2023-02-13T01:36:32.382Z,22.85
2023-02-13T01:39:02.647Z,23.10
2023-02-13T01:41:32.435Z,22.55
2023-02-13T01:44:03.860Z,22.30
2023-02-13T01:46:37.915Z,20.77
2023-02-13T01:49:14.414Z,22.45
2023-02-13T01:51:47.606Z,22.60
2023-02-13T01:54:20.011Z,22.13
2023-02-13T01:56:52.314Z,22.83
2023-02-13T01:59:27.447Z,23.73
2023-02-13T02:01:57.571Z,24.30
2023-02-13T02:04:31.408Z,24.55
2023-02-13T02:07:06.170Z,24.90
2023-02-13T02:09:39.646Z,23.00
2023-02-13T02:12:13.993Z,23.40
2023-02-13T02:14:45.153Z,24.38
2023-02-13T02:17:15.109Z,23.85
2023-02-13T02:19:53.689Z,24.17
2023-02-13T02:23:00.492Z,23.45
2023-02-13T02:25:55.323Z,24.48
2023-02-13T02:29:00.363Z,24.33
2023-02-13T02:32:00.852Z,25.67
2023-02-13T02:34:39.907Z,25.10
2023-02-13T02:37:23.691Z,26.17
2023-02-13T02:40:04.257Z,25.73
2023-02-13T02:42:44.592Z,25.95
2023-02-13T02:45:24.531Z,25.40
2023-02-13T02:48:15.055Z,25.08
2023-02-13T02:50:49.339Z,24.85
2023-02-13T02:53:31.376Z,24.33
2023-02-13T02:56:08.616Z,24.42
2023-02-13T02:58:56.687Z,25.83
2023-02-13T03:01:42.149Z,25.48
2023-02-13T03:04:33.367Z,26.50
2023-02-13T03:07:08.109Z,25.35
2023-02-13T03:09:55.287Z,24.67
2023-02-13T03:12:42.265Z,24.70
2023-02-13T03:15:12.402Z,25.73
2023-02-13T03:17:54.771Z,25.85
2023-02-13T03:20:53.508Z,24.13
2023-02-13T03:23:33.014Z,24.88
2023-02-13T03:26:46.242Z,25.08
2023-02-13T03:29:37.160Z,24.75
2023-02-13T03:32:14.605Z,25.77
2023-02-13T03:35:07.229Z,28.42
2023-02-13T03:37:58.842Z,29.67
2023-02-13T03:40:33.966Z,27.23
2023-02-13T03:43:12.077Z,27.58
2023-02-13T03:45:58.119Z,29.08
2023-02-13T03:48:44.315Z,27.40
2023-02-13T03:51:22.475Z,28.33
2023-02-13T03:53:58.734Z,29.08
2023-02-13T03:56:42.946Z,29.45
2023-02-13T03:59:22.800Z,28.75
2023-02-13T04:02:01.504Z,29.65
2023-02-13T04:04:38.069Z,31.02
2023-02-13T04:07:12.069Z,32.22
2023-02-13T04:09:45.906Z,33.90
2023-02-13T04:12:21.584Z,32.45
2023-02-13T04:14:55.934Z,33.65
2023-02-13T04:17:29.706Z,33.88
2023-02-13T04:19:59.674Z,31.90
2023-02-13T04:22:29.471Z,33.05
2023-02-13T04:25:02.017Z,32.38
2023-02-13T04:27:31.929Z,32.03
2023-02-13T04:30:01.699Z,30.88
2023-02-13T04:32:31.684Z,31.02
2023-02-13T04:35:02.043Z,32.50
2023-02-13T04:37:31.826Z,31.90
2023-02-13T04:40:04.279Z,30.40
2023-02-13T04:42:34.132Z,32.05
2023-02-13T04:45:03.974Z,31.33
2023-02-13T04:47:33.790Z,33.17
2023-02-13T04:50:03.564Z,32.92
2023-02-13T04:52:33.404Z,32.15
2023-02-13T04:55:06.187Z,30.45
2023-02-13T04:57:35.969Z,32.88
2023-02-13T05:00:05.964Z,33.03
2023-02-13T05:02:35.722Z,31.65
2023-02-13T05:05:05.446Z,30.42
2023-02-13T05:07:35.206Z,33.95
2023-02-13T05:10:08.391Z,33.17
2023-02-13T05:12:38.136Z,31.95
2023-02-13T05:15:08.672Z,32.55
2023-02-13T05:17:38.427Z,33.33
2023-02-13T05:20:10.045Z,30.83
2023-02-13T05:22:52.310Z,30.90
2023-02-13T05:25:24.750Z,37.20
2023-02-13T05:27:54.506Z,33.47
2023-02-13T05:30:22.032Z,30.95
2023-02-13T05:32:52.472Z,32.05
2023-02-13T05:35:22.444Z,33.13
2023-02-13T05:37:52.259Z,31.38
2023-02-13T05:40:24.731Z,29.35
2023-02-13T05:42:57.096Z,30.42
2023-02-13T05:45:26.869Z,29.90
2023-02-13T05:47:56.627Z,29.58
2023-02-13T05:50:26.400Z,30.90
2023-02-13T05:52:56.152Z,28.50
2023-02-13T05:55:28.554Z,28.90
2023-02-13T05:58:00.084Z,29.65
2023-02-13T06:00:30.066Z,31.30
2023-02-13T06:02:59.969Z,29.95
2023-02-13T06:05:29.791Z,29.52
2023-02-13T06:07:59.630Z,31.20
2023-02-13T06:10:32.159Z,30.83
2023-02-13T06:13:02.002Z,30.88
2023-02-13T06:15:31.762Z,32.03
2023-02-13T06:18:01.497Z,31.73
2023-02-13T06:20:31.239Z,30.33
2023-02-13T06:23:00.975Z,29.05
2023-02-13T06:25:33.678Z,29.38
2023-02-13T06:28:07.270Z,28.90
2023-02-13T06:30:37.161Z,29.70
2023-02-13T06:33:06.915Z,31.65
2023-02-13T06:35:36.734Z,31.20
2023-02-13T06:38:06.451Z,32.15
2023-02-13T06:40:38.742Z,35.10
2023-02-13T06:43:08.548Z,32.58
2023-02-13T06:45:39.628Z,33.28
2023-02-13T06:48:09.637Z,31.75
2023-02-13T06:50:39.348Z,30.92
2023-02-13T06:53:09.090Z,31.58
2023-02-13T06:55:41.609Z,30.10
2023-02-13T06:58:11.411Z,29.38
2023-02-13T07:00:41.280Z,28.88
2023-02-13T07:03:11.188Z,28.25
2023-02-13T07:05:43.428Z,29.65
2023-02-13T07:08:14.156Z,28.67
2023-02-13T07:10:46.545Z,27.40
2023-02-13T07:13:16.495Z,29.67
2023-02-13T07:15:46.327Z,28.45
2023-02-13T07:18:16.261Z,30.10
2023-02-13T07:20:46.047Z,28.83
2023-02-13T07:23:15.807Z,28.00
2023-02-13T07:25:48.091Z,28.58
2023-02-13T07:28:17.981Z,26.80
2023-02-13T07:30:47.788Z,29.73
2023-02-13T07:33:17.552Z,29.63
2023-02-13T07:35:50.136Z,29.40
2023-02-13T07:38:22.584Z,27.27
2023-02-13T07:40:55.276Z,27.13
2023-02-13T07:43:25.295Z,26.63
2023-02-13T07:45:56.787Z,28.75
2023-02-13T07:48:27.346Z,27.60
2023-02-13T07:50:57.737Z,30.38
2023-02-13T07:53:27.762Z,30.92
2023-02-13T07:56:00.347Z,29.30
2023-02-13T07:58:30.201Z,28.55
2023-02-13T08:01:00.040Z,26.63
2023-02-13T08:03:29.893Z,26.60
2023-02-13T08:05:59.868Z,27.67
2023-02-13T08:08:29.740Z,25.25
2023-02-13T08:11:19.939Z,25.05
2023-02-13T08:13:49.679Z,24.30
2023-02-13T08:16:19.479Z,24.50
2023-02-13T08:18:49.238Z,22.77
2023-02-13T08:21:18.978Z,22.58
2023-02-13T08:23:51.839Z,22.80
2023-02-13T08:26:24.190Z,22.40
2023-02-13T08:28:53.984Z,23.10
2023-02-13T08:31:23.890Z,21.60
2023-02-13T08:33:53.762Z,21.50
2023-02-13T08:36:23.514Z,21.80
2023-02-13T08:38:53.245Z,21.15
2023-02-13T08:41:26.173Z,19.77
2023-02-13T08:43:57.298Z,20.27
2023-02-13T08:46:27.107Z,19.48
2023-02-13T08:48:57.899Z,19.42
2023-02-13T08:51:27.650Z,18.23
2023-02-13T08:53:57.458Z,17.83
2023-02-13T08:56:29.902Z,17.70
2023-02-13T08:58:59.688Z,17.23
2023-02-13T09:01:29.660Z,17.75
2023-02-13T09:03:59.437Z,16.77
2023-02-13T09:06:30.931Z,22.25
2023-02-13T09:09:00.765Z,16.15
2023-02-13T09:11:33.083Z,15.95
2023-02-13T09:14:02.974Z,16.08
2023-02-13T09:16:32.789Z,15.30
2023-02-13T09:19:02.702Z,15.68
2023-02-13T09:21:32.453Z,15.55
2023-02-13T09:24:02.276Z,15.95
2023-02-13T09:26:34.667Z,14.68
2023-02-13T09:29:04.462Z,14.35
2023-02-13T09:31:34.488Z,14.40
2023-02-13T09:34:04.429Z,14.48
2023-02-13T09:36:34.370Z,13.45
2023-02-13T09:39:04.159Z,15.38
2023-02-13T09:41:40.570Z,13.65
2023-02-13T09:44:34.103Z,13.98
2023-02-13T09:47:07.259Z,13.85
2023-02-13T09:49:41.439Z,13.43
2023-02-13T09:52:12.873Z,13.07
2023-02-13T09:54:42.651Z,11.88
2023-02-13T09:57:23.218Z,11.82
2023-02-13T10:00:00.886Z,12.60
2023-02-13T10:02:52.471Z,12.50
2023-02-13T10:05:58.096Z,11.45
2023-02-13T10:08:51.464Z,12.32
2023-02-13T10:11:49.378Z,12.43
2023-02-13T10:14:26.658Z,13.35
2023-02-13T10:17:02.667Z,12.50
2023-02-13T10:19:38.770Z,13.20
2023-02-13T10:22:14.399Z,12.10
2023-02-13T10:24:49.590Z,12.68
2023-02-13T10:27:24.781Z,12.27
2023-02-13T10:30:12.848Z,12.23
2023-02-13T10:32:50.431Z,12.88
2023-02-13T10:35:24.261Z,11.40
2023-02-13T10:37:58.256Z,11.68
2023-02-13T10:40:34.660Z,12.63
2023-02-13T10:43:11.956Z,11.35
2023-02-13T10:45:59.714Z,11.50
2023-02-13T10:48:48.473Z,11.63
2023-02-13T10:51:27.851Z,11.18
2023-02-13T10:54:15.133Z,11.57
2023-02-13T10:56:52.018Z,11.27
2023-02-13T10:59:46.584Z,11.38
2023-02-13T11:02:25.854Z,11.00
2023-02-13T11:05:02.113Z,12.27
2023-02-13T11:07:33.213Z,12.00
2023-02-13T11:10:08.372Z,12.30
2023-02-13T11:12:38.282Z,11.75
2023-02-13T11:15:11.156Z,18.48
2023-02-13T11:17:46.794Z,11.00
2023-02-13T11:20:30.943Z,10.57
2023-02-13T11:23:20.519Z,12.05
2023-02-13T11:26:00.264Z,11.82
2023-02-13T11:28:31.786Z,12.10
2023-02-13T11:31:14.785Z,10.50
2023-02-13T11:33:47.177Z,10.75
2023-02-13T11:36:18.748Z,10.70
2023-02-13T11:38:48.472Z,10.88
2023-02-13T11:41:22.067Z,10.75
2023-02-13T11:44:01.031Z,10.10
2023-02-13T11:46:32.546Z,10.00
2023-02-13T11:49:07.396Z,10.35
2023-02-13T11:51:45.985Z,10.82
2023-02-13T11:54:31.980Z,10.10
2023-02-13T11:57:05.044Z,10.02
2023-02-13T11:59:42.032Z,10.83
2023-02-13T12:02:21.634Z,9.98
2023-02-13T12:04:56.433Z,10.50
2023-02-13T12:07:29.221Z,10.50
2023-02-13T12:10:04.059Z,10.68
2023-02-13T12:12:40.323Z,10.43
2023-02-13T12:15:19.988Z,10.18
2023-02-13T12:17:56.440Z,10.55
2023-02-13T12:20:33.900Z,10.98
2023-02-13T12:23:10.345Z,10.13
2023-02-13T12:26:08.671Z,11.02
2023-02-13T12:29:01.787Z,10.38
2023-02-13T12:31:49.982Z,9.98
2023-02-13T12:34:55.610Z,10.75
2023-02-13T12:40:30.834Z,9.80
2023-02-13T12:43:21.174Z,11.13
2023-02-13T12:45:56.102Z,11.07
2023-02-13T12:48:38.311Z,10.63
2023-02-13T12:51:25.524Z,10.88
2023-02-13T12:54:24.256Z,10.88
2023-02-13T12:57:08.703Z,10.73
2023-02-13T12:59:54.164Z,10.05
2023-02-13T13:02:47.503Z,10.90
2023-02-13T13:05:34.561Z,10.68
2023-02-13T13:08:29.223Z,11.30
2023-02-13T13:11:14.925Z,10.20
2023-02-13T13:13:56.719Z,11.00
2023-02-13T13:16:34.555Z,10.88
2023-02-13T13:19:13.012Z,10.98
2023-02-13T13:21:53.563Z,10.48
2023-02-13T13:24:36.383Z,10.60
2023-02-13T13:27:17.748Z,9.00
2023-02-13T13:29:51.331Z,8.82
2023-02-13T13:32:24.008Z,8.30
2023-02-13T13:34:54.566Z,8.23
2023-02-13T13:37:35.008Z,8.00
2023-02-13T13:40:12.664Z,8.45
2023-02-13T13:42:50.580Z,7.22
2023-02-13T13:45:35.581Z,7.10
2023-02-13T13:48:23.384Z,7.50
2023-02-13T13:50:53.862Z,6.90
2023-02-13T13:53:25.574Z,6.95
2023-02-13T13:56:08.590Z,7.20
2023-02-13T13:58:51.182Z,6.70
2023-02-13T14:01:26.862Z,6.80
2023-02-13T14:03:58.682Z,6.30
2023-02-13T14:06:30.592Z,6.45
2023-02-13T14:09:03.652Z,6.53
2023-02-13T14:11:40.711Z,7.38
2023-02-13T14:14:49.647Z,7.53
2023-02-13T14:17:55.708Z,6.43
2023-02-13T14:20:41.505Z,9.50
2023-02-13T14:23:37.897Z,6.18
2023-02-13T14:26:34.583Z,7.00
2023-02-13T14:29:29.438Z,7.28
2023-02-13T14:32:18.716Z,6.03
2023-02-13T14:34:59.225Z,6.47
2023-02-13T14:37:36.656Z,6.82
2023-02-13T14:40:38.243Z,6.65
2023-02-13T14:43:40.396Z,6.45
2023-02-13T14:46:18.850Z,6.40
2023-02-13T14:48:55.659Z,7.03
2023-02-13T14:51:33.322Z,6.45
2023-02-13T14:54:08.620Z,7.22
2023-02-13T14:56:41.229Z,7.00
2023-02-13T14:59:18.812Z,6.75
2023-02-13T15:01:53.068Z,7.63
2023-02-13T15:04:33.765Z,6.68
2023-02-13T15:07:10.200Z,7.43
2023-02-13T15:09:42.562Z,6.95
2023-02-13T15:12:31.555Z,7.03
2023-02-13T15:15:03.024Z,6.97
2023-02-13T15:17:38.725Z,6.70
2023-02-13T15:20:19.304Z,7.57
2023-02-13T15:22:51.766Z,7.03
2023-02-13T15:25:32.052Z,7.28
2023-02-13T15:28:03.288Z,7.15
2023-02-13T15:30:36.280Z,6.10
2023-02-13T15:33:18.270Z,6.80
2023-02-13T15:35:48.841Z,6.15
2023-02-13T15:38:28.825Z,7.53
2023-02-13T15:41:02.885Z,7.38
2023-02-13T15:43:39.329Z,6.60
2023-02-13T15:46:21.241Z,7.00
2023-02-13T15:48:51.875Z,6.97
2023-02-13T15:51:23.373Z,8.15
2023-02-13T15:53:57.031Z,8.57
2023-02-13T15:56:27.550Z,8.00
2023-02-13T15:58:58.967Z,8.35
2023-02-13T16:01:28.945Z,13.70
2023-02-13T16:04:05.524Z,8.10
2023-02-13T16:06:36.845Z,8.15
2023-02-13T16:09:09.556Z,8.35
2023-02-13T16:11:41.339Z,8.57
2023-02-13T16:14:18.796Z,8.35
2023-02-13T16:16:55.488Z,7.78
2023-02-13T16:19:35.537Z,7.90
2023-02-13T16:22:18.910Z,7.82
2023-02-13T16:24:54.456Z,8.25
2023-02-13T16:27:28.781Z,8.75
2023-02-13T16:30:01.501Z,8.65
2023-02-13T16:32:33.854Z,9.60
2023-02-13T16:35:19.705Z,13.40
2023-02-13T16:37:56.289Z,10.88
2023-02-13T16:40:43.360Z,9.35
2023-02-13T16:43:42.013Z,8.88
2023-02-13T16:46:30.912Z,8.52
2023-02-13T16:49:28.920Z,9.07
2023-02-13T16:52:02.592Z,8.77
2023-02-13T16:54:38.453Z,8.73
2023-02-13T16:57:26.203Z,8.80
2023-02-13T17:00:05.511Z,8.52
2023-02-13T17:02:37.086Z,9.45
2023-02-13T17:05:23.199Z,8.43
2023-02-13T17:07:54.654Z,9.00
2023-02-13T17:10:27.245Z,11.18
2023-02-13T17:13:02.478Z,9.68
2023-02-13T17:15:34.115Z,9.70
2023-02-13T17:18:04.023Z,8.90
2023-02-13T17:20:36.238Z,9.90
2023-02-13T17:23:08.923Z,9.30
2023-02-13T17:25:41.295Z,10.15
2023-02-13T17:28:18.746Z,10.27
2023-02-13T17:30:50.100Z,10.07
2023-02-13T17:33:24.563Z,10.35
2023-02-13T17:35:55.032Z,10.00
2023-02-13T17:38:25.446Z,10.07
2023-02-13T17:40:55.208Z,10.63
2023-02-13T17:43:28.967Z,11.23
2023-02-13T17:46:01.213Z,10.13
2023-02-13T17:48:31.428Z,10.75
2023-02-13T17:51:01.493Z,10.55
2023-02-13T17:53:32.811Z,11.05
2023-02-13T17:56:02.563Z,11.55
2023-02-13T17:58:34.994Z,10.48
2023-02-13T18:01:04.725Z,10.48
2023-02-13T18:03:34.581Z,10.15
2023-02-13T18:06:04.372Z,10.45
2023-02-13T18:08:34.147Z,11.65
2023-02-13T18:11:03.961Z,11.13
2023-02-13T18:13:36.419Z,10.35
2023-02-13T18:16:11.600Z,10.68
2023-02-13T18:18:41.467Z,10.52
2023-02-13T18:21:12.659Z,11.25
2023-02-13T18:23:43.390Z,11.10
2023-02-13T18:26:13.624Z,10.77
2023-02-13T18:28:46.010Z,10.52
2023-02-13T18:31:16.717Z,11.40
2023-02-13T18:33:46.596Z,11.27
2023-02-13T18:36:16.365Z,11.48
2023-02-13T18:38:46.072Z,11.82
2023-02-13T18:41:15.941Z,12.15
2023-02-13T18:43:48.413Z,12.25
2023-02-13T18:46:18.222Z,12.30
2023-02-13T18:48:48.217Z,11.60
2023-02-13T18:51:20.833Z,10.85
2023-02-13T18:53:50.651Z,12.00
2023-02-13T18:56:20.503Z,12.65
2023-02-13T18:58:53.197Z,11.25
2023-02-13T19:01:24.793Z,12.15
2023-02-13T19:03:55.717Z,11.85
2023-02-13T19:06:27.681Z,12.68
2023-02-13T19:08:58.499Z,12.38
2023-02-13T19:11:29.412Z,12.10
2023-02-13T19:14:02.773Z,13.13
2023-02-13T19:16:34.953Z,12.15
2023-02-13T19:19:07.431Z,12.73
2023-02-13T19:21:39.374Z,12.70
2023-02-13T19:24:11.412Z,12.80
2023-02-13T19:26:41.263Z,13.95
2023-02-13T19:29:13.728Z,13.68
2023-02-13T19:31:43.684Z,14.45
2023-02-13T19:34:13.764Z,13.73
2023-02-13T19:36:43.565Z,13.45
2023-02-13T19:39:13.826Z,13.52
2023-02-13T19:41:44.584Z,13.93
2023-02-13T19:44:16.928Z,13.88
2023-02-13T19:46:46.742Z,13.60
2023-02-13T19:49:16.752Z,14.38
2023-02-13T19:51:47.351Z,13.95
2023-02-13T19:54:17.201Z,14.15
2023-02-13T19:56:47.622Z,14.93
2023-02-13T19:59:19.990Z,16.20
2023-02-13T20:01:49.784Z,16.50
2023-02-13T20:04:19.529Z,16.65
2023-02-13T20:06:49.686Z,14.38
2023-02-13T20:09:19.783Z,16.02
2023-02-13T20:11:50.573Z,14.57
2023-02-13T20:14:23.219Z,16.30
2023-02-13T20:16:53.076Z,16.35
2023-02-13T20:19:22.906Z,15.98
2023-02-13T20:21:53.144Z,15.60
2023-02-13T20:24:23.056Z,15.98
2023-02-13T20:26:52.907Z,17.20
2023-02-13T20:29:25.275Z,16.58
2023-02-13T20:31:55.281Z,15.50
2023-02-13T20:34:25.747Z,15.90
2023-02-13T20:36:55.884Z,16.35
2023-02-13T20:39:25.893Z,16.38
2023-02-13T20:41:55.799Z,17.27
2023-02-13T20:44:29.551Z,16.63
2023-02-13T20:47:00.287Z,16.27
2023-02-13T20:49:30.970Z,15.57
2023-02-13T20:52:00.916Z,16.85
2023-02-13T20:54:30.705Z,16.55
2023-02-13T20:57:00.556Z,17.30
2023-02-13T20:59:33.168Z,16.13
2023-02-13T21:02:02.924Z,17.45
2023-02-13T21:04:33.241Z,16.77
2023-02-13T21:07:03.617Z,17.27
2023-02-13T21:09:33.418Z,17.52
2023-02-13T21:12:03.188Z,17.17
2023-02-13T21:14:35.865Z,17.30
2023-02-13T21:17:05.925Z,17.77
2023-02-13T21:19:36.006Z,17.95
2023-02-13T21:22:13.794Z,18.80
2023-02-13T21:24:45.012Z,16.30
2023-02-13T21:27:14.908Z,17.38
2023-02-13T21:29:47.306Z,17.25
2023-02-13T21:32:17.477Z,18.30
2023-02-13T21:34:47.253Z,17.58
2023-02-13T21:37:17.203Z,18.35
2023-02-13T21:39:46.947Z,17.70
2023-02-13T21:42:18.029Z,19.75
2023-02-13T21:44:50.366Z,17.35
2023-02-13T21:47:20.208Z,17.77
2023-02-13T21:49:51.232Z,19.20
2023-02-13T21:52:21.042Z,19.92
2023-02-13T21:54:51.163Z,18.40
2023-02-13T21:57:20.904Z,19.02
2023-02-13T21:59:53.347Z,18.55
2023-02-13T22:02:23.210Z,20.48
2023-02-13T22:04:53.037Z,19.30
2023-02-13T22:07:22.804Z,19.65
2023-02-13T22:09:52.809Z,19.92
2023-02-13T22:12:22.579Z,19.92
2023-02-13T22:14:57.409Z,19.88
2023-02-13T22:17:27.428Z,19.52
2023-02-13T22:19:57.172Z,19.90
2023-02-13T22:22:27.024Z,19.08
2023-02-13T22:24:56.987Z,20.85
2023-02-13T22:27:26.823Z,21.77
2023-02-13T22:29:59.407Z,21.75
2023-02-13T22:32:29.329Z,20.33
2023-02-13T22:34:59.131Z,20.20
2023-02-13T22:37:29.023Z,20.85
2023-02-13T22:39:58.743Z,20.05
2023-02-13T22:42:28.539Z,23.73
2023-02-13T22:45:00.950Z,22.08
2023-02-13T22:47:31.898Z,21.38
2023-02-13T22:50:01.721Z,20.70
2023-02-13T22:52:31.578Z,23.27
2023-02-13T22:55:01.315Z,23.42
2023-02-13T22:57:31.082Z,21.52
2023-02-13T23:00:03.551Z,22.83
2023-02-13T23:02:33.630Z,22.65
2023-02-13T23:05:03.447Z,22.38
2023-02-13T23:07:33.201Z,21.45
2023-02-13T23:10:02.922Z,20.42
2023-02-13T23:12:39.832Z,21.60
2023-02-13T23:15:14.236Z,22.95
2023-02-13T23:17:57.264Z,22.52
2023-02-13T23:20:27.736Z,22.05
2023-02-13T23:22:57.582Z,21.65
2023-02-13T23:25:27.444Z,21.02
2023-02-13T23:27:58.136Z,21.20
2023-02-13T23:30:31.149Z,22.25
2023-02-13T23:33:02.203Z,21.70
2023-02-13T23:35:31.979Z,22.65
2023-02-13T23:38:01.761Z,22.95
2023-02-13T23:40:31.535Z,20.33
2023-02-13T23:43:01.320Z,22.85
2023-02-13T23:45:33.705Z,23.13
2023-02-13T23:48:03.474Z,21.80
2023-02-13T23:50:33.455Z,21.45
2023-02-13T23:53:03.431Z,22.08
2023-02-13T23:55:33.172Z,20.23
2023-02-13T23:58:03.376Z,21.58
